Pemaquid Point Lighthouse, ME

43° 50' 13"N, 69° 30' 22"W, Elevation 40 ft.
Eastern Time

Hourly observations for the last 72 hours

Date Time Temperature (°F) Humi-
dity

(%)
Wind
(mph)
Pressure Rain (in) Sun
(W/m2)
UV ET
(in)
Air Dew 6 Hour 1 Hr 3 Hr 6 Hr Day
Alt
(in)
Sea
Level

(mb)
Max Min
26 02:00 42.2 40.9 43.7 40.5 95 SE 4 G 6 29.98 1015.2 0.00 0 0.0 0.000
26 01:00 41.8 40.2 94 ESE 5 G 8 29.99 1015.5 0.00 0 0.0 0.000
26 00:00 41.5 39.9 94 ESE 4 G 5 30.00 1016.0 0.00 0 0.0 0.100
25 23:00 41.9 40.3 94 SSE 3 G 5 29.99 1015.5 0.00 0 0.0 0.100
25 22:00 42.4 40.2 92 SSW 2 G 4 30.01 1016.3 0.00 0 0.0 0.100
25 21:00 42.5 40.3 92 ESE 3 G 4 29.98 1015.2 0.00 0 0.0 0.100
25 20:00 43.6 41.1 46.9 43.5 91 SSW 2 G 3 29.97 1014.9 0.00 0 0.0 0.100
25 19:00 45.7 42.6 89 SSW 4 G 6 29.94 1014.1 0.00 67 0.0 0.097
25 18:00 46.5 42.8 87 SSW 5 G 6 29.94 1013.9 0.00 299 0.5 0.090
25 17:00 46.4 42.1 85 S 5 G 8 29.93 1013.5 0.00 510 1.3 0.080
25 16:00 45.4 41.8 87 S 9 G 10 29.93 1013.7 0.00 396 1.9 0.070
25 15:00 45.7 42.1 87 S 12 G 13 29.93 1013.7 0.00 547 3.2 0.062
25 14:00 43.6 40.0 47.6 42.2 87 S 9 G 10 29.93 1013.7 0.00 431 3.1 0.050
25 13:00 45.0 40.5 84 S 12 G 14 29.94 1013.8 0.00 1132 6.5 0.034
25 12:00 44.9 40.7 85 SE 12 G 15 29.93 1013.6 0.00 965 6.2 0.018
25 11:00 46.9 41.4 81 S 7 G 9 29.94 1013.9 0.00 394 3.6 0.008
25 10:00 44.7 40.8 86 E 2 G 5 29.94 1014.0 0.00 313 2.3 0.005
25 09:00 43.9 40.0 86 ENE 2 G 5 29.94 1013.8 0.00 97 1.4 0.002
25 08:00 42.2 39.5 42.3 39.9 90 N 6 G 8 29.92 1013.4 0.00 163 0.7 0.000
25 07:00 41.4 39.5 93 NNW 3 G 6 29.90 1012.5 0.00 28 0.0 0.000
25 06:00 40.1 38.5 94 NW 5 G 7 29.87 1011.4 0.00 11 0.0 0.000
25 05:00 41.6 40.3 95 NNW 3 G 5 29.85 1011.0 0.00 0 0.0 0.000
25 04:00 41.9 40.8 96 WNW 2 G 3 29.85 1010.7 0.00 0 0.0 0.000
25 03:00 42.0 40.7 95 WNW 3 G 4 29.83 1010.2 0.00 0 0.0 0.000
25 02:00 42.3 41.0 42.4 40.2 95 NW 4 G 5 29.82 1009.8 0.00 0 0.0 0.000
25 01:00 41.7 40.6 96 NW 4 G 6 29.82 1009.9 0.00 0 0.0 0.000
25 00:00 40.2 38.9 95 WNW 2 G 4 29.81 1009.5 0.08 0 0.0 0.032
24 23:00 40.8 39.5 95 W 6 G 8 29.81 1009.3 0.08 0 0.0 0.032
24 22:00 41.2 39.9 95 W 3 G 6 29.80 1009.0 0.08 0 0.0 0.032
24 21:00 41.1 39.8 95 W 4 G 8 29.79 1008.7 0.08 0 0.0 0.032
24 20:00 41.7 40.1 43.4 41.6 94 S 4 G 4 29.77 1008.0 0.08 0 0.0 0.032
24 19:00 41.9 40.6 95 NE 1 G 3 29.74 1007.0 0.08 11 0.0 0.032
24 18:00 41.9 40.6 95 NE 4 G 6 29.72 1006.6 0.08 62 0.0 0.030
24 17:00 42.3 41.0 95 ESE 6 G 8 29.70 1005.9 0.08 97 0.5 0.028
24 16:00 42.8 41.7 96 E 7 G 10 29.68 1005.3 0.08 318 1.6 0.024
24 15:00 43.2 42.4 97 ENE 5 G 7 29.68 1005.1 0.08 209 1.5 0.020
24 14:00 42.4 41.6 42.5 40.7 97 NE 4 G 7 29.68 1005.0 0.08 246 1.6 0.015
24 13:00 42.1 41.0 96 NNE 6 G 9 29.68 1005.1 0.08 267 1.9 0.010
24 12:00 41.0 39.9 96 NE 11 G 14 29.67 1004.7 0.08 130 1.0 0.008
24 11:00 40.9 39.8 96 NE 10 G 12 29.67 1004.9 0.08 105 0.9 0.006
24 10:00 40.8 39.7 96 NE 10 G 13 29.68 1005.0 0.08 83 0.7 0.004
24 09:00 40.8 39.7 96 ENE 10 G 14 29.69 1005.3 0.08 120 0.7 0.002
24 08:00 40.9 39.8 41.7 40.0 96 ENE 11 G 13 29.70 1005.8 0.01 0.01 0.08 0.08 95 0.0 0.001
24 07:00 40.3 39.0 95 E 11 G 12 29.72 1006.4 0.07 39 0.0 0.000
24 06:00 40.1 38.8 95 E 9 G 11 29.73 1006.7 0.07 0 0.0 0.000
24 05:00 40.4 39.1 95 E 6 G 10 29.75 1007.3 0.03 0.07 0.07 0 0.0 0.000
24 04:00 40.9 39.3 94 E 9 G 10 29.74 1007.0 0.04 0.04 0 0.0 0.000
24 03:00 41.3 39.4 93 E 7 G 8 29.76 1007.8 0.00 0 0.0 0.000
24 02:00 41.6 39.7 43.9 41.5 93 NE 0 G 3 29.80 1009.0 0.01 0.00 0 0.0 0.000
24 01:00 41.8 39.6 92 NNE 1 G 4 29.81 1009.5 0.00 0 0.0 0.000
24 00:00 42.2 39.8 91 N 2 G 3 29.83 1010.1 0.69 0 0.0 0.032
23 23:00 42.6 40.4 92 N 2 G 8 29.83 1010.4 0.01 0.69 0 0.0 0.032
23 22:00 43.2 41.0 92 N 2 G 6 29.84 1010.5 0.01 0.69 0 0.0 0.032
23 21:00 43.4 41.2 92 N 2 G 6 29.85 1011.0 0.68 0 0.0 0.032
23 20:00 43.9 41.4 45.0 43.7 91 NW 6 G 11 29.86 1011.3 0.68 0 0.0 0.032
23 19:00 44.4 41.7 90 N 2 G 8 29.86 1011.2 0.68 11 0.0 0.031
23 18:00 44.5 42.0 91 N 4 G 12 29.86 1011.1 0.68 102 0.0 0.028
23 17:00 44.2 41.5 90 N 11 G 16 29.87 1011.4 0.68 121 0.6 0.025
23 16:00 44.9 42.1 90 N 7 G 15 29.88 1011.7 0.68 141 1.0 0.021
23 15:00 44.0 41.8 92 N 6 G 14 29.90 1012.6 0.68 172 1.2 0.018
23 14:00 44.4 42.2 46.6 44.4 92 NNW 7 G 16 29.91 1013.0 0.01 0.16 0.68 162 1.3 0.015
23 13:00 45.3 43.4 93 NNE 6 G 16 29.92 1013.1 0.01 0.68 206 1.6 0.012
23 12:00 44.9 43.6 95 N 8 G 17 29.93 1013.4 0.67 211 2.0 0.008
23 11:00 45.4 44.3 96 N 11 G 19 29.93 1013.5 0.15 0.67 200 1.6 0.004
23 10:00 46.3 45.5 97 N 4 G 13 29.94 1014.0 0.01 0.67 113 0.8 0.003
23 09:00 46.4 45.6 97 N 3 G 9 29.95 1014.3 0.14 0.66 60 0.0 0.002
23 08:00 45.8 45.0 47.7 44.3 97 NNE 11 G 15 29.95 1014.3 0.06 0.08 0.49 0.52 25 0.0 0.001
23 07:00 45.5 44.7 97 NE 13 G 18 29.94 1013.9 0.01 0.46 25 0.0 0.000
23 06:00 45.9 45.1 97 NE 19 G 23 29.94 1013.9 0.01 0.45 12 0.0 0.000
23 05:00 44.4 43.6 97 NE 15 G 20 29.93 1013.7 0.24 0.41 0.44 0 0.0 0.000
23 04:00 44.8 44.0 97 ESE 16 G 18 29.97 1015.0 0.16 0.20 0 0.0 0.000
23 03:00 46.7 45.9 97 NE 11 G 19 29.94 1014.0 0.01 0.04 0 0.0 0.000

Data generated by WxSolution Version 1.9.1.5, Build 2018.05.20.